Terminal Aerodrome Forecast
Issued by NWS

Home | Current Version | Previous Version | Text Only | Print | Product List | Glossary On
Versions: 1 2 3 4 5 6 7 8 9 10 11 12 13 14 15 16 17 18 19 20 21 22
000
FTUS43 KDLH 220500
TAFHYR
TAF
KHYR 220539Z 2206/2306 18012G20KT P6SM VCTS SCT020 BKN035CB
      TEMPO 2206/2208 -RA BKN025
     FM220800 VRB06KT 5SM -TSRA SCT015 OVC025CB
      TEMPO 2208/2212 VRB35KT 1SM TSRA BKN008 OVC012CB
     FM221200 25008KT 4SM BR VCSH SCT007 OVC015
     FM221600 29012KT P6SM BKN020
     FM222000 29014KT P6SM BKN040=

USA.gov is the U.S. government's official web portal to all federal, state and local government web resources and services.